sensor_id;sensor_type;location;lat;lon;timestamp;P1;durP1;ratioP1;P2;durP2;ratioP2
40787;SDS011;26497;52.494;7.546;2023-06-10T00:00:01;1999.90;;;999.90;;
40787;SDS011;26497;52.494;7.546;2023-06-10T00:02:30;1999.90;;;999.90;;
40787;SDS011;26497;52.494;7.546;2023-06-10T00:04:57;1999.90;;;999.90;;
40787;SDS011;26497;52.494;7.546;2023-06-10T00:07:24;1999.90;;;999.90;;
40787;SDS011;26497;52.494;7.546;2023-06-10T00:09:51;1999.90;;;999.90;;
40787;SDS011;26497;52.494;7.546;2023-06-10T00:12:18;1999.90;;;999.90;;
40787;SDS011;26497;52.494;7.546;2023-06-10T00:14:47;1999.90;;;999.90;;
40787;SDS011;26497;52.494;7.546;2023-06-10T00:17:15;1999.90;;;999.90;;
40787;SDS011;26497;52.494;7.546;2023-06-10T00:19:42;1999.90;;;999.90;;
40787;SDS011;26497;52.494;7.546;2023-06-10T00:22:11;1999.90;;;999.90;;
40787;SDS011;26497;52.494;7.546;2023-06-10T00:24:39;1999.90;;;999.90;;
40787;SDS011;26497;52.494;7.546;2023-06-10T00:27:07;1999.90;;;999.90;;
40787;SDS011;26497;52.494;7.546;2023-06-10T00:29:33;1999.90;;;999.90;;
40787;SDS011;26497;52.494;7.546;2023-06-10T00:32:02;1999.90;;;999.90;;
40787;SDS011;26497;52.494;7.546;2023-06-10T00:34:30;1999.90;;;999.90;;
40787;SDS011;26497;52.494;7.546;2023-06-10T00:36:57;1999.90;;;999.90;;
40787;SDS011;26497;52.494;7.546;2023-06-10T00:39:24;1999.90;;;999.90;;
40787;SDS011;26497;52.494;7.546;2023-06-10T00:41:51;1999.90;;;999.90;;
40787;SDS011;26497;52.494;7.546;2023-06-10T00:44:18;1999.90;;;999.90;;
40787;SDS011;26497;52.494;7.546;2023-06-10T00:46:45;1999.90;;;999.90;;
40787;SDS011;26497;52.494;7.546;2023-06-10T00:49:14;1999.90;;;999.90;;
40787;SDS011;26497;52.494;7.546;2023-06-10T00:51:41;1999.90;;;999.90;;
40787;SDS011;26497;52.494;7.546;2023-06-10T00:54:09;1999.90;;;999.90;;
40787;SDS011;26497;52.494;7.546;2023-06-10T00:56:38;1999.90;;;999.90;;
40787;SDS011;26497;52.494;7.546;2023-06-10T00:59:08;1999.90;;;999.90;;
40787;SDS011;26497;52.494;7.546;2023-06-10T01:01:35;1999.90;;;999.90;;
40787;SDS011;26497;52.494;7.546;2023-06-10T01:04:04;1999.90;;;999.90;;
40787;SDS011;26497;52.494;7.546;2023-06-10T01:06:37;1999.90;;;999.90;;
40787;SDS011;26497;52.494;7.546;2023-06-10T01:09:18;1999.90;;;999.90;;
40787;SDS011;26497;52.494;7.546;2023-06-10T01:11:58;1999.90;;;999.90;;
40787;SDS011;26497;52.494;7.546;2023-06-10T01:14:33;1999.90;;;999.90;;
40787;SDS011;26497;52.494;7.546;2023-06-10T01:17:00;1999.90;;;999.90;;
40787;SDS011;26497;52.494;7.546;2023-06-10T01:19:28;1999.90;;;999.90;;
40787;SDS011;26497;52.494;7.546;2023-06-10T01:21:57;1999.90;;;999.90;;
40787;SDS011;26497;52.494;7.546;2023-06-10T01:24:25;1999.90;;;999.90;;
40787;SDS011;26497;52.494;7.546;2023-06-10T01:26:53;1999.90;;;999.90;;
40787;SDS011;26497;52.494;7.546;2023-06-10T01:29:26;1999.90;;;999.90;;
40787;SDS011;26497;52.494;7.546;2023-06-10T01:32:04;1999.90;;;999.90;;
40787;SDS011;26497;52.494;7.546;2023-06-10T01:34:38;1999.90;;;999.90;;
40787;SDS011;26497;52.494;7.546;2023-06-10T01:37:09;1999.90;;;999.90;;
40787;SDS011;26497;52.494;7.546;2023-06-10T01:42:31;1999.90;;;999.90;;
40787;SDS011;26497;52.494;7.546;2023-06-10T01:44:58;1999.90;;;999.90;;
40787;SDS011;26497;52.494;7.546;2023-06-10T01:47:25;1999.90;;;999.90;;
40787;SDS011;26497;52.494;7.546;2023-06-10T01:49:52;1999.90;;;999.90;;
40787;SDS011;26497;52.494;7.546;2023-06-10T01:52:21;1999.90;;;999.90;;
40787;SDS011;26497;52.494;7.546;2023-06-10T01:54:48;1999.90;;;999.90;;
40787;SDS011;26497;52.494;7.546;2023-06-10T01:57:15;1999.90;;;999.90;;
40787;SDS011;26497;52.494;7.546;2023-06-10T01:59:42;1999.90;;;999.90;;
40787;SDS011;26497;52.494;7.546;2023-06-10T02:02:09;1999.90;;;999.90;;
40787;SDS011;26497;52.494;7.546;2023-06-10T02:04:36;1999.90;;;999.90;;
40787;SDS011;26497;52.494;7.546;2023-06-10T02:07:03;1999.90;;;999.90;;
40787;SDS011;26497;52.494;7.546;2023-06-10T02:09:32;1999.90;;;999.90;;
40787;SDS011;26497;52.494;7.546;2023-06-10T02:12:00;1999.90;;;999.90;;
40787;SDS011;26497;52.494;7.546;2023-06-10T02:14:28;1999.90;;;999.90;;
40787;SDS011;26497;52.494;7.546;2023-06-10T02:16:55;1999.90;;;999.90;;
40787;SDS011;26497;52.494;7.546;2023-06-10T02:19:22;1999.90;;;999.90;;
40787;SDS011;26497;52.494;7.546;2023-06-10T02:21:50;1999.90;;;999.90;;
40787;SDS011;26497;52.494;7.546;2023-06-10T02:24:17;1999.90;;;999.90;;
40787;SDS011;26497;52.494;7.546;2023-06-10T02:26:45;1999.90;;;999.90;;
40787;SDS011;26497;52.494;7.546;2023-06-10T02:29:13;1999.90;;;999.90;;
40787;SDS011;26497;52.494;7.546;2023-06-10T02:31:40;1999.90;;;999.90;;
40787;SDS011;26497;52.494;7.546;2023-06-10T02:34:07;1999.90;;;999.90;;
40787;SDS011;26497;52.494;7.546;2023-06-10T02:36:33;1999.90;;;999.90;;
40787;SDS011;26497;52.494;7.546;2023-06-10T02:39:01;1999.90;;;999.90;;
40787;SDS011;26497;52.494;7.546;2023-06-10T02:41:29;1999.90;;;999.90;;
40787;SDS011;26497;52.494;7.546;2023-06-10T02:43:57;1999.90;;;999.90;;
40787;SDS011;26497;52.494;7.546;2023-06-10T02:46:24;1999.90;;;999.90;;
40787;SDS011;26497;52.494;7.546;2023-06-10T02:48:53;1999.90;;;999.90;;
40787;SDS011;26497;52.494;7.546;2023-06-10T02:51:20;1999.90;;;999.90;;
40787;SDS011;26497;52.494;7.546;2023-06-10T02:53:47;1999.90;;;999.90;;
40787;SDS011;26497;52.494;7.546;2023-06-10T02:56:15;1999.90;;;999.90;;
40787;SDS011;26497;52.494;7.546;2023-06-10T02:58:43;1999.90;;;999.90;;
40787;SDS011;26497;52.494;7.546;2023-06-10T03:01:12;1999.90;;;999.90;;
40787;SDS011;26497;52.494;7.546;2023-06-10T03:03:39;1999.90;;;999.90;;
40787;SDS011;26497;52.494;7.546;2023-06-10T03:06:07;1999.90;;;999.90;;
40787;SDS011;26497;52.494;7.546;2023-06-10T03:08:35;1999.90;;;999.90;;
40787;SDS011;26497;52.494;7.546;2023-06-10T03:11:02;1999.90;;;999.90;;
40787;SDS011;26497;52.494;7.546;2023-06-10T03:13:29;1999.90;;;999.90;;
40787;SDS011;26497;52.494;7.546;2023-06-10T03:15:56;1999.90;;;999.90;;
40787;SDS011;26497;52.494;7.546;2023-06-10T03:18:25;1999.90;;;999.90;;
40787;SDS011;26497;52.494;7.546;2023-06-10T03:20:53;1999.90;;;999.90;;
40787;SDS011;26497;52.494;7.546;2023-06-10T03:23:21;1999.90;;;999.90;;
40787;SDS011;26497;52.494;7.546;2023-06-10T03:25:48;1999.90;;;999.90;;
40787;SDS011;26497;52.494;7.546;2023-06-10T03:28:15;1999.90;;;999.90;;
40787;SDS011;26497;52.494;7.546;2023-06-10T03:30:42;1999.90;;;999.90;;
40787;SDS011;26497;52.494;7.546;2023-06-10T03:33:09;1999.90;;;999.90;;
40787;SDS011;26497;52.494;7.546;2023-06-10T03:35:38;1999.90;;;999.90;;
40787;SDS011;26497;52.494;7.546;2023-06-10T03:38:05;1999.90;;;999.90;;
40787;SDS011;26497;52.494;7.546;2023-06-10T03:40:32;1999.90;;;999.90;;
40787;SDS011;26497;52.494;7.546;2023-06-10T03:42:59;1999.90;;;999.90;;
40787;SDS011;26497;52.494;7.546;2023-06-10T03:45:26;1999.90;;;999.90;;
40787;SDS011;26497;52.494;7.546;2023-06-10T03:47:54;1999.90;;;999.90;;
40787;SDS011;26497;52.494;7.546;2023-06-10T03:50:22;1999.90;;;999.90;;
40787;SDS011;26497;52.494;7.546;2023-06-10T03:52:50;1999.90;;;999.90;;
40787;SDS011;26497;52.494;7.546;2023-06-10T03:55:17;1999.90;;;999.90;;
40787;SDS011;26497;52.494;7.546;2023-06-10T03:57:47;1999.90;;;999.90;;
40787;SDS011;26497;52.494;7.546;2023-06-10T04:00:14;1999.90;;;999.90;;
40787;SDS011;26497;52.494;7.546;2023-06-10T04:02:42;1999.90;;;999.90;;
40787;SDS011;26497;52.494;7.546;2023-06-10T04:05:12;1999.90;;;999.90;;
40787;SDS011;26497;52.494;7.546;2023-06-10T04:07:40;1999.90;;;999.90;;
40787;SDS011;26497;52.494;7.546;2023-06-10T04:10:09;1999.90;;;999.90;;
40787;SDS011;26497;52.494;7.546;2023-06-10T04:12:37;1999.90;;;999.90;;
40787;SDS011;26497;52.494;7.546;2023-06-10T04:15:06;1999.90;;;999.90;;
40787;SDS011;26497;52.494;7.546;2023-06-10T04:17:33;1999.90;;;999.90;;
40787;SDS011;26497;52.494;7.546;2023-06-10T04:20:00;1999.90;;;999.90;;
40787;SDS011;26497;52.494;7.546;2023-06-10T04:22:29;120.40;;;113.22;;
40787;SDS011;26497;52.494;7.546;2023-06-10T04:24:56;110.35;;;103.35;;
40787;SDS011;26497;52.494;7.546;2023-06-10T04:27:25;97.40;;;90.95;;
40787;SDS011;26497;52.494;7.546;2023-06-10T04:29:52;89.53;;;84.32;;
40787;SDS011;26497;52.494;7.546;2023-06-10T04:32:19;91.38;;;85.80;;
40787;SDS011;26497;52.494;7.546;2023-06-10T04:34:46;1999.90;;;999.90;;
40787;SDS011;26497;52.494;7.546;2023-06-10T04:37:13;1999.90;;;999.90;;
40787;SDS011;26497;52.494;7.546;2023-06-10T04:39:40;1999.90;;;999.90;;
40787;SDS011;26497;52.494;7.546;2023-06-10T04:42:07;1999.90;;;999.90;;
40787;SDS011;26497;52.494;7.546;2023-06-10T04:44:39;1999.90;;;999.90;;
40787;SDS011;26497;52.494;7.546;2023-06-10T04:47:06;1999.90;;;999.90;;
40787;SDS011;26497;52.494;7.546;2023-06-10T04:49:34;1999.90;;;999.90;;
40787;SDS011;26497;52.494;7.546;2023-06-10T04:52:01;1999.90;;;999.90;;
40787;SDS011;26497;52.494;7.546;2023-06-10T04:54:29;1999.90;;;999.90;;
40787;SDS011;26497;52.494;7.546;2023-06-10T04:56:57;1999.90;;;999.90;;
40787;SDS011;26497;52.494;7.546;2023-06-10T04:59:25;1999.90;;;999.90;;
40787;SDS011;26497;52.494;7.546;2023-06-10T05:01:53;1999.90;;;999.90;;
40787;SDS011;26497;52.494;7.546;2023-06-10T05:04:20;1999.90;;;999.90;;
40787;SDS011;26497;52.494;7.546;2023-06-10T05:06:47;1999.90;;;999.90;;
40787;SDS011;26497;52.494;7.546;2023-06-10T05:09:14;1999.90;;;999.90;;
40787;SDS011;26497;52.494;7.546;2023-06-10T05:11:41;1999.90;;;999.90;;
40787;SDS011;26497;52.494;7.546;2023-06-10T05:14:09;1999.90;;;999.90;;
40787;SDS011;26497;52.494;7.546;2023-06-10T05:16:36;1999.90;;;999.90;;
40787;SDS011;26497;52.494;7.546;2023-06-10T05:19:05;1999.90;;;999.90;;
40787;SDS011;26497;52.494;7.546;2023-06-10T05:21:32;1999.90;;;999.90;;
40787;SDS011;26497;52.494;7.546;2023-06-10T05:23:59;1999.90;;;999.90;;
40787;SDS011;26497;52.494;7.546;2023-06-10T05:26:25;1999.90;;;999.90;;
40787;SDS011;26497;52.494;7.546;2023-06-10T05:28:54;1999.90;;;999.90;;
40787;SDS011;26497;52.494;7.546;2023-06-10T05:31:21;1999.90;;;999.90;;
40787;SDS011;26497;52.494;7.546;2023-06-10T05:33:48;1999.90;;;999.90;;
40787;SDS011;26497;52.494;7.546;2023-06-10T05:36:16;1999.90;;;999.90;;
40787;SDS011;26497;52.494;7.546;2023-06-10T05:38:43;1999.90;;;999.90;;
40787;SDS011;26497;52.494;7.546;2023-06-10T05:41:11;1999.90;;;999.90;;
40787;SDS011;26497;52.494;7.546;2023-06-10T05:43:38;1999.90;;;999.90;;
40787;SDS011;26497;52.494;7.546;2023-06-10T05:46:05;1999.90;;;999.90;;
40787;SDS011;26497;52.494;7.546;2023-06-10T05:48:32;1999.90;;;999.90;;
40787;SDS011;26497;52.494;7.546;2023-06-10T05:50:59;1999.90;;;999.90;;
40787;SDS011;26497;52.494;7.546;2023-06-10T05:53:27;1999.90;;;999.90;;
40787;SDS011;26497;52.494;7.546;2023-06-10T05:55:54;1999.90;;;999.90;;
40787;SDS011;26497;52.494;7.546;2023-06-10T05:58:22;1999.90;;;999.90;;
40787;SDS011;26497;52.494;7.546;2023-06-10T06:00:50;1999.90;;;999.90;;
40787;SDS011;26497;52.494;7.546;2023-06-10T06:03:17;1999.90;;;999.90;;
40787;SDS011;26497;52.494;7.546;2023-06-10T06:05:44;1999.90;;;999.90;;
40787;SDS011;26497;52.494;7.546;2023-06-10T06:08:11;1999.90;;;999.90;;
40787;SDS011;26497;52.494;7.546;2023-06-10T06:10:43;1999.90;;;999.90;;
40787;SDS011;26497;52.494;7.546;2023-06-10T06:13:11;1999.90;;;999.90;;
40787;SDS011;26497;52.494;7.546;2023-06-10T06:15:38;1999.90;;;999.90;;
40787;SDS011;26497;52.494;7.546;2023-06-10T06:18:05;1999.90;;;999.90;;
40787;SDS011;26497;52.494;7.546;2023-06-10T06:20:32;1999.90;;;999.90;;
40787;SDS011;26497;52.494;7.546;2023-06-10T06:22:59;1999.90;;;999.90;;
40787;SDS011;26497;52.494;7.546;2023-06-10T06:25:26;1999.90;;;999.90;;
40787;SDS011;26497;52.494;7.546;2023-06-10T06:27:54;1999.90;;;999.90;;
40787;SDS011;26497;52.494;7.546;2023-06-10T06:30:21;1999.90;;;999.90;;
40787;SDS011;26497;52.494;7.546;2023-06-10T06:32:48;1999.90;;;999.90;;
40787;SDS011;26497;52.494;7.546;2023-06-10T06:35:16;1999.90;;;999.90;;
40787;SDS011;26497;52.494;7.546;2023-06-10T06:37:43;1999.90;;;999.90;;
40787;SDS011;26497;52.494;7.546;2023-06-10T06:40:11;1999.90;;;999.90;;
40787;SDS011;26497;52.494;7.546;2023-06-10T06:42:39;1999.90;;;999.90;;
40787;SDS011;26497;52.494;7.546;2023-06-10T06:45:07;1999.90;;;999.90;;
40787;SDS011;26497;52.494;7.546;2023-06-10T06:47:35;1999.90;;;999.90;;
40787;SDS011;26497;52.494;7.546;2023-06-10T06:50:02;1999.90;;;999.90;;
40787;SDS011;26497;52.494;7.546;2023-06-10T06:52:30;1999.90;;;999.90;;
40787;SDS011;26497;52.494;7.546;2023-06-10T06:54:57;1999.90;;;999.90;;
40787;SDS011;26497;52.494;7.546;2023-06-10T06:57:24;1999.90;;;999.90;;
40787;SDS011;26497;52.494;7.546;2023-06-10T06:59:51;1999.90;;;999.90;;
40787;SDS011;26497;52.494;7.546;2023-06-10T07:02:19;1999.90;;;999.90;;
40787;SDS011;26497;52.494;7.546;2023-06-10T07:04:46;1999.90;;;999.90;;
40787;SDS011;26497;52.494;7.546;2023-06-10T07:07:14;1999.90;;;999.90;;
40787;SDS011;26497;52.494;7.546;2023-06-10T07:09:42;1999.90;;;999.90;;
40787;SDS011;26497;52.494;7.546;2023-06-10T07:12:09;1999.90;;;999.90;;
40787;SDS011;26497;52.494;7.546;2023-06-10T07:14:36;1999.90;;;999.90;;
40787;SDS011;26497;52.494;7.546;2023-06-10T07:17:03;1999.90;;;999.90;;
40787;SDS011;26497;52.494;7.546;2023-06-10T07:19:32;1999.90;;;999.90;;
40787;SDS011;26497;52.494;7.546;2023-06-10T07:21:59;1999.90;;;999.90;;
40787;SDS011;26497;52.494;7.546;2023-06-10T07:24:26;1999.90;;;999.90;;
40787;SDS011;26497;52.494;7.546;2023-06-10T07:26:53;1999.90;;;999.90;;
40787;SDS011;26497;52.494;7.546;2023-06-10T07:29:20;1999.90;;;999.90;;
40787;SDS011;26497;52.494;7.546;2023-06-10T07:31:47;1999.90;;;999.90;;
40787;SDS011;26497;52.494;7.546;2023-06-10T07:34:14;1999.90;;;999.90;;
40787;SDS011;26497;52.494;7.546;2023-06-10T07:36:42;1999.90;;;999.90;;
40787;SDS011;26497;52.494;7.546;2023-06-10T07:39:09;1999.90;;;999.90;;
40787;SDS011;26497;52.494;7.546;2023-06-10T07:41:36;1999.90;;;999.90;;
40787;SDS011;26497;52.494;7.546;2023-06-10T07:44:03;1999.90;;;999.90;;
40787;SDS011;26497;52.494;7.546;2023-06-10T07:46:30;1999.90;;;999.90;;
40787;SDS011;26497;52.494;7.546;2023-06-10T07:48:57;1999.90;;;999.90;;
40787;SDS011;26497;52.494;7.546;2023-06-10T07:51:24;1999.90;;;999.90;;
40787;SDS011;26497;52.494;7.546;2023-06-10T07:53:52;1999.90;;;999.90;;
40787;SDS011;26497;52.494;7.546;2023-06-10T07:56:19;1999.90;;;999.90;;
40787;SDS011;26497;52.494;7.546;2023-06-10T07:58:46;1999.90;;;999.90;;
40787;SDS011;26497;52.494;7.546;2023-06-10T08:01:14;1999.90;;;999.90;;
40787;SDS011;26497;52.494;7.546;2023-06-10T08:03:42;1999.90;;;999.90;;
40787;SDS011;26497;52.494;7.546;2023-06-10T08:06:09;1999.90;;;999.90;;
40787;SDS011;26497;52.494;7.546;2023-06-10T08:08:36;1999.90;;;999.90;;
40787;SDS011;26497;52.494;7.546;2023-06-10T08:11:08;1999.90;;;999.90;;
40787;SDS011;26497;52.494;7.546;2023-06-10T08:13:36;1999.90;;;999.90;;
40787;SDS011;26497;52.494;7.546;2023-06-10T08:16:04;1999.90;;;999.90;;
40787;SDS011;26497;52.494;7.546;2023-06-10T08:18:32;1999.90;;;999.90;;
40787;SDS011;26497;52.494;7.546;2023-06-10T08:20:59;1999.90;;;999.90;;
40787;SDS011;26497;52.494;7.546;2023-06-10T08:23:26;1999.90;;;999.90;;
40787;SDS011;26497;52.494;7.546;2023-06-10T08:25:53;1999.90;;;999.90;;
40787;SDS011;26497;52.494;7.546;2023-06-10T08:28:22;1999.90;;;999.90;;
40787;SDS011;26497;52.494;7.546;2023-06-10T08:30:49;1999.90;;;999.90;;
40787;SDS011;26497;52.494;7.546;2023-06-10T08:33:16;1999.90;;;999.90;;
40787;SDS011;26497;52.494;7.546;2023-06-10T08:35:43;68.15;;;64.40;;
40787;SDS011;26497;52.494;7.546;2023-06-10T08:38:10;68.75;;;64.65;;
40787;SDS011;26497;52.494;7.546;2023-06-10T08:40:37;69.15;;;64.90;;
40787;SDS011;26497;52.494;7.546;2023-06-10T08:43:05;61.22;;;57.40;;
40787;SDS011;26497;52.494;7.546;2023-06-10T08:45:35;58.15;;;54.80;;
40787;SDS011;26497;52.494;7.546;2023-06-10T08:48:03;56.45;;;53.20;;
40787;SDS011;26497;52.494;7.546;2023-06-10T08:50:32;49.33;;;46.08;;
40787;SDS011;26497;52.494;7.546;2023-06-10T08:53:04;44.35;;;41.85;;
40787;SDS011;26497;52.494;7.546;2023-06-10T08:55:33;39.85;;;37.45;;
40787;SDS011;26497;52.494;7.546;2023-06-10T08:58:02;41.28;;;38.90;;
40787;SDS011;26497;52.494;7.546;2023-06-10T09:00:30;45.33;;;42.72;;
40787;SDS011;26497;52.494;7.546;2023-06-10T09:03:00;46.58;;;43.75;;
40787;SDS011;26497;52.494;7.546;2023-06-10T09:05:28;46.25;;;43.17;;
40787;SDS011;26497;52.494;7.546;2023-06-10T09:11:40;42.58;;;40.10;;
40787;SDS011;26497;52.494;7.546;2023-06-10T09:14:08;49.58;;;46.70;;
40787;SDS011;26497;52.494;7.546;2023-06-10T09:16:37;44.85;;;42.15;;
40787;SDS011;26497;52.494;7.546;2023-06-10T09:19:08;42.72;;;40.25;;
40787;SDS011;26497;52.494;7.546;2023-06-10T09:21:37;41.08;;;38.15;;
40787;SDS011;26497;52.494;7.546;2023-06-10T09:24:04;42.85;;;39.90;;
40787;SDS011;26497;52.494;7.546;2023-06-10T09:26:32;40.88;;;38.55;;
40787;SDS011;26497;52.494;7.546;2023-06-10T09:29:06;45.58;;;42.53;;
40787;SDS011;26497;52.494;7.546;2023-06-10T09:31:35;38.65;;;36.45;;
40787;SDS011;26497;52.494;7.546;2023-06-10T09:34:07;42.65;;;39.70;;
40787;SDS011;26497;52.494;7.546;2023-06-10T09:36:36;40.70;;;38.30;;
40787;SDS011;26497;52.494;7.546;2023-06-10T09:39:04;46.95;;;44.35;;
40787;SDS011;26497;52.494;7.546;2023-06-10T09:41:39;40.67;;;38.38;;
40787;SDS011;26497;52.494;7.546;2023-06-10T09:44:10;44.80;;;42.30;;
40787;SDS011;26497;52.494;7.546;2023-06-10T09:46:40;45.00;;;42.47;;
40787;SDS011;26497;52.494;7.546;2023-06-10T09:49:09;47.22;;;44.60;;
40787;SDS011;26497;52.494;7.546;2023-06-10T09:51:36;46.42;;;43.58;;
40787;SDS011;26497;52.494;7.546;2023-06-10T09:54:03;43.35;;;40.75;;
40787;SDS011;26497;52.494;7.546;2023-06-10T09:56:33;43.10;;;40.28;;
40787;SDS011;26497;52.494;7.546;2023-06-10T09:59:02;45.08;;;41.83;;
40787;SDS011;26497;52.494;7.546;2023-06-10T10:01:31;47.38;;;44.08;;
40787;SDS011;26497;52.494;7.546;2023-06-10T10:03:58;41.33;;;38.63;;
40787;SDS011;26497;52.494;7.546;2023-06-10T10:06:27;47.30;;;44.20;;
40787;SDS011;26497;52.494;7.546;2023-06-10T10:08:55;46.40;;;42.60;;
40787;SDS011;26497;52.494;7.546;2023-06-10T10:11:22;44.95;;;42.25;;
40787;SDS011;26497;52.494;7.546;2023-06-10T10:16:19;43.20;;;40.75;;
40787;SDS011;26497;52.494;7.546;2023-06-10T10:18:49;39.33;;;36.67;;
40787;SDS011;26497;52.494;7.546;2023-06-10T10:21:21;36.30;;;34.42;;
40787;SDS011;26497;52.494;7.546;2023-06-10T10:23:56;40.20;;;37.97;;
40787;SDS011;26497;52.494;7.546;2023-06-10T10:26:29;42.38;;;39.97;;
40787;SDS011;26497;52.494;7.546;2023-06-10T10:29:00;37.97;;;35.85;;
40787;SDS011;26497;52.494;7.546;2023-06-10T10:31:36;42.38;;;39.63;;
40787;SDS011;26497;52.494;7.546;2023-06-10T10:34:06;35.30;;;33.35;;
40787;SDS011;26497;52.494;7.546;2023-06-10T10:36:36;34.20;;;32.30;;
40787;SDS011;26497;52.494;7.546;2023-06-10T10:39:05;34.47;;;32.38;;
40787;SDS011;26497;52.494;7.546;2023-06-10T10:41:32;36.83;;;34.83;;
40787;SDS011;26497;52.494;7.546;2023-06-10T10:44:02;37.63;;;35.42;;
40787;SDS011;26497;52.494;7.546;2023-06-10T10:46:37;34.28;;;32.13;;
40787;SDS011;26497;52.494;7.546;2023-06-10T10:49:09;38.88;;;36.75;;
40787;SDS011;26497;52.494;7.546;2023-06-10T10:51:38;32.92;;;31.13;;
40787;SDS011;26497;52.494;7.546;2023-06-10T10:54:29;33.70;;;31.75;;
40787;SDS011;26497;52.494;7.546;2023-06-10T10:57:12;34.10;;;31.33;;
40787;SDS011;26497;52.494;7.546;2023-06-10T10:59:44;35.10;;;32.55;;
40787;SDS011;26497;52.494;7.546;2023-06-10T11:02:17;35.95;;;33.92;;
40787;SDS011;26497;52.494;7.546;2023-06-10T11:04:46;42.45;;;40.13;;
40787;SDS011;26497;52.494;7.546;2023-06-10T11:07:14;37.47;;;35.17;;
40787;SDS011;26497;52.494;7.546;2023-06-10T11:09:58;33.38;;;31.50;;
40787;SDS011;26497;52.494;7.546;2023-06-10T11:12:26;43.00;;;40.47;;
40787;SDS011;26497;52.494;7.546;2023-06-10T11:15:19;45.40;;;41.75;;
40787;SDS011;26497;52.494;7.546;2023-06-10T11:23:39;36.03;;;33.83;;
40787;SDS011;26497;52.494;7.546;2023-06-10T11:26:13;32.60;;;30.70;;
40787;SDS011;26497;52.494;7.546;2023-06-10T11:29:00;33.83;;;31.80;;
40787;SDS011;26497;52.494;7.546;2023-06-10T11:31:44;34.10;;;31.70;;
40787;SDS011;26497;52.494;7.546;2023-06-10T11:34:15;33.10;;;31.33;;
40787;SDS011;26497;52.494;7.546;2023-06-10T11:36:49;35.50;;;33.30;;
40787;SDS011;26497;52.494;7.546;2023-06-10T11:39:19;33.07;;;31.03;;
40787;SDS011;26497;52.494;7.546;2023-06-10T11:41:49;31.65;;;30.05;;
40787;SDS011;26497;52.494;7.546;2023-06-10T11:44:17;35.83;;;33.17;;
40787;SDS011;26497;52.494;7.546;2023-06-10T11:46:45;33.70;;;31.50;;
40787;SDS011;26497;52.494;7.546;2023-06-10T11:49:14;34.97;;;33.13;;
40787;SDS011;26497;52.494;7.546;2023-06-10T11:51:42;32.33;;;30.60;;
40787;SDS011;26497;52.494;7.546;2023-06-10T11:54:14;34.10;;;32.20;;
40787;SDS011;26497;52.494;7.546;2023-06-10T11:56:42;35.00;;;32.67;;
40787;SDS011;26497;52.494;7.546;2023-06-10T11:59:11;36.63;;;34.55;;
40787;SDS011;26497;52.494;7.546;2023-06-10T12:01:38;38.20;;;35.97;;
40787;SDS011;26497;52.494;7.546;2023-06-10T12:04:10;35.13;;;33.08;;
40787;SDS011;26497;52.494;7.546;2023-06-10T12:06:39;37.65;;;34.92;;
40787;SDS011;26497;52.494;7.546;2023-06-10T12:11:43;33.03;;;31.13;;
40787;SDS011;26497;52.494;7.546;2023-06-10T12:14:13;34.45;;;32.55;;
40787;SDS011;26497;52.494;7.546;2023-06-10T12:16:40;36.00;;;33.92;;
40787;SDS011;26497;52.494;7.546;2023-06-10T12:19:14;36.15;;;34.25;;
40787;SDS011;26497;52.494;7.546;2023-06-10T12:21:41;35.78;;;33.88;;
40787;SDS011;26497;52.494;7.546;2023-06-10T12:24:08;36.33;;;34.10;;
40787;SDS011;26497;52.494;7.546;2023-06-10T12:26:37;33.97;;;31.93;;
40787;SDS011;26497;52.494;7.546;2023-06-10T12:29:20;36.20;;;34.28;;
40787;SDS011;26497;52.494;7.546;2023-06-10T12:31:53;36.75;;;34.83;;
40787;SDS011;26497;52.494;7.546;2023-06-10T12:34:31;37.35;;;34.90;;
40787;SDS011;26497;52.494;7.546;2023-06-10T12:37:00;38.35;;;36.20;;
40787;SDS011;26497;52.494;7.546;2023-06-10T12:39:29;38.73;;;36.37;;
40787;SDS011;26497;52.494;7.546;2023-06-10T12:41:56;33.70;;;31.85;;
40787;SDS011;26497;52.494;7.546;2023-06-10T12:44:32;38.45;;;36.25;;
40787;SDS011;26497;52.494;7.546;2023-06-10T12:47:00;35.25;;;33.35;;
40787;SDS011;26497;52.494;7.546;2023-06-10T12:52:27;37.28;;;35.22;;
40787;SDS011;26497;52.494;7.546;2023-06-10T12:54:54;38.75;;;36.20;;
40787;SDS011;26497;52.494;7.546;2023-06-10T12:57:21;38.85;;;36.72;;
40787;SDS011;26497;52.494;7.546;2023-06-10T12:59:50;35.85;;;33.58;;
40787;SDS011;26497;52.494;7.546;2023-06-10T13:02:17;37.10;;;35.10;;
40787;SDS011;26497;52.494;7.546;2023-06-10T13:04:46;36.25;;;34.25;;
40787;SDS011;26497;52.494;7.546;2023-06-10T13:07:13;36.22;;;34.13;;
40787;SDS011;26497;52.494;7.546;2023-06-10T13:09:40;38.92;;;36.63;;
40787;SDS011;26497;52.494;7.546;2023-06-10T13:12:07;35.78;;;32.50;;
40787;SDS011;26497;52.494;7.546;2023-06-10T13:14:35;40.75;;;38.15;;
40787;SDS011;26497;52.494;7.546;2023-06-10T13:17:04;36.92;;;34.42;;
40787;SDS011;26497;52.494;7.546;2023-06-10T13:19:31;37.47;;;35.30;;
40787;SDS011;26497;52.494;7.546;2023-06-10T13:21:59;38.35;;;36.38;;
40787;SDS011;26497;52.494;7.546;2023-06-10T13:24:26;39.00;;;36.92;;
40787;SDS011;26497;52.494;7.546;2023-06-10T13:26:53;39.90;;;37.80;;
40787;SDS011;26497;52.494;7.546;2023-06-10T13:29:21;40.40;;;38.30;;
40787;SDS011;26497;52.494;7.546;2023-06-10T13:31:48;37.85;;;35.85;;
40787;SDS011;26497;52.494;7.546;2023-06-10T13:34:16;41.05;;;38.72;;
40787;SDS011;26497;52.494;7.546;2023-06-10T13:36:43;40.60;;;38.30;;
40787;SDS011;26497;52.494;7.546;2023-06-10T13:39:10;39.10;;;37.03;;
40787;SDS011;26497;52.494;7.546;2023-06-10T13:41:38;41.90;;;39.45;;
40787;SDS011;26497;52.494;7.546;2023-06-10T13:44:07;37.95;;;35.95;;
40787;SDS011;26497;52.494;7.546;2023-06-10T13:46:34;40.70;;;38.38;;
40787;SDS011;26497;52.494;7.546;2023-06-10T13:49:01;35.20;;;32.90;;
40787;SDS011;26497;52.494;7.546;2023-06-10T13:51:29;39.33;;;37.13;;
40787;SDS011;26497;52.494;7.546;2023-06-10T13:53:56;37.28;;;35.38;;
40787;SDS011;26497;52.494;7.546;2023-06-10T13:56:23;44.63;;;42.33;;
40787;SDS011;26497;52.494;7.546;2023-06-10T13:58:50;37.95;;;35.88;;
40787;SDS011;26497;52.494;7.546;2023-06-10T14:01:17;35.53;;;33.50;;
40787;SDS011;26497;52.494;7.546;2023-06-10T14:03:44;40.75;;;38.22;;
40787;SDS011;26497;52.494;7.546;2023-06-10T14:06:11;42.22;;;40.03;;
40787;SDS011;26497;52.494;7.546;2023-06-10T14:08:44;36.80;;;34.40;;
40787;SDS011;26497;52.494;7.546;2023-06-10T14:11:11;43.72;;;41.25;;
40787;SDS011;26497;52.494;7.546;2023-06-10T14:13:38;41.60;;;39.20;;
40787;SDS011;26497;52.494;7.546;2023-06-10T14:16:05;41.70;;;38.80;;
40787;SDS011;26497;52.494;7.546;2023-06-10T14:18:32;38.90;;;36.83;;
40787;SDS011;26497;52.494;7.546;2023-06-10T14:20:59;39.78;;;37.58;;
40787;SDS011;26497;52.494;7.546;2023-06-10T14:23:26;40.33;;;38.03;;
40787;SDS011;26497;52.494;7.546;2023-06-10T14:25:54;40.28;;;38.28;;